Terminal Aerodrome Forecast
Issued by NWS Cleveland, OH

Home | Current Version | Previous Version | Graphics & Text | Print | Product List | Glossary On
Versions: 1 2 3 4 5 6 7 8 9 10 11 12 13 14 15 16 17 18 19 20 21 22
000
FTUS41 KCLE 162100 AAA
TAFYNG
TAF AMD
KYNG 162141Z 1622/1718 24010KT 6SM -RA BR SCT012 OVC022
      TEMPO 1622/1624 OVC012
     FM170000 24012KT 6SM -RA SCT008 OVC012
     FM170300 25012KT P6SM OVC008
     FM171300 25012G25KT P6SM OVC012=

USA.gov is the U.S. government's official web portal to all federal, state and local government web resources and services.